createdAt,value
2022-09-26T00:00:33.659Z,99447.09
2022-09-26T00:05:36.353Z,99446.53
2022-09-26T00:10:37.970Z,99442.53
2022-09-26T00:15:39.610Z,99438.47
2022-09-26T00:20:41.234Z,99430.44
2022-09-26T00:25:51.496Z,99419.91
2022-09-26T00:30:53.538Z,99414.69
2022-09-26T00:35:55.828Z,99415.00
2022-09-26T00:40:58.128Z,99410.19
2022-09-26T00:46:18.566Z,99414.41
2022-09-26T00:51:20.636Z,99401.66
2022-09-26T00:56:30.332Z,99387.50
2022-09-26T01:01:32.248Z,99387.91
2022-09-26T01:06:34.015Z,99386.69
2022-09-26T01:12:10.358Z,99382.81
2022-09-26T01:17:13.379Z,99377.16
2022-09-26T01:22:48.685Z,99366.06
2022-09-26T01:28:18.652Z,99363.34
2022-09-26T01:33:35.878Z,99352.69
2022-09-26T01:39:05.254Z,99332.50
2022-09-26T01:44:35.558Z,99343.09
2022-09-26T01:49:46.667Z,99340.69
2022-09-26T01:54:57.280Z,99343.56
2022-09-26T02:00:05.894Z,99331.94
2022-09-26T02:05:16.247Z,99327.81
2022-09-26T02:10:28.936Z,99316.97
2022-09-26T02:15:35.051Z,99314.09
2022-09-26T02:20:38.998Z,99297.00
2022-09-26T02:25:40.763Z,99292.97
2022-09-26T02:30:46.432Z,99287.19
2022-09-26T02:35:57.606Z,99280.31
2022-09-26T02:41:02.229Z,99266.53
2022-09-26T02:46:51.654Z,99272.56
2022-09-26T02:52:02.415Z,99250.81
2022-09-26T02:57:04.001Z,99257.50
2022-09-26T03:02:18.152Z,99252.09
2022-09-26T03:08:05.002Z,99239.28
2022-09-26T03:13:13.276Z,99233.41
2022-09-26T03:18:21.059Z,99237.66
2022-09-26T03:23:26.991Z,99228.75
2022-09-26T03:28:30.814Z,99218.16
2022-09-26T03:33:34.504Z,99212.00
2022-09-26T03:38:36.205Z,99201.47
2022-09-26T03:43:37.853Z,99196.41
2022-09-26T03:48:39.988Z,99179.28
2022-09-26T03:53:43.601Z,99184.25
2022-09-26T03:58:46.729Z,99170.22
2022-09-26T04:04:10.377Z,99159.69
2022-09-26T04:09:16.800Z,99158.16
2022-09-26T04:14:19.989Z,99149.38
2022-09-26T04:19:21.600Z,99139.75
2022-09-26T04:24:23.234Z,99134.69
2022-09-26T04:29:24.906Z,99123.72
2022-09-26T04:34:27.578Z,99115.47
2022-09-26T04:39:29.396Z,99114.38
2022-09-26T04:44:31.216Z,99112.75
2022-09-26T04:49:32.842Z,99101.50
2022-09-26T04:54:37.481Z,99093.00
2022-09-26T04:59:39.099Z,99091.97
2022-09-26T05:04:40.770Z,99088.81
2022-09-26T05:09:42.949Z,99088.84
2022-09-26T05:14:44.765Z,99084.78
2022-09-26T05:19:46.386Z,99075.94
2022-09-26T05:25:06.559Z,99074.56
2022-09-26T05:30:08.553Z,99069.00
2022-09-26T05:35:10.245Z,99062.00
2022-09-26T05:40:30.389Z,99060.63
2022-09-26T05:45:32.796Z,99050.97
2022-09-26T05:50:34.760Z,99042.19
2022-09-26T05:55:37.791Z,99041.53
2022-09-26T06:00:39.412Z,99042.44
2022-09-26T06:05:42.544Z,99043.06
2022-09-26T06:10:44.188Z,99034.72
2022-09-26T06:15:45.837Z,99038.00
2022-09-26T06:20:47.458Z,99040.19
2022-09-26T06:25:50.152Z,99028.31
2022-09-26T06:30:52.431Z,99025.72
2022-09-26T06:36:05.353Z,99015.94
2022-09-26T06:41:07.637Z,99001.78
2022-09-26T06:46:09.630Z,98989.94
2022-09-26T06:51:13.863Z,98993.56
2022-09-26T06:56:15.697Z,98983.38
2022-09-26T07:01:18.563Z,98976.34
2022-09-26T07:06:20.281Z,98965.81
2022-09-26T07:16:45.095Z,98963.69
2022-09-26T07:21:48.184Z,98959.50
2022-09-26T07:26:50.252Z,98960.34
2022-09-26T07:31:52.130Z,98949.91
2022-09-26T07:36:54.300Z,98944.16
2022-09-26T07:41:55.962Z,98936.88
2022-09-26T07:47:32.936Z,98923.00
2022-09-26T07:52:34.710Z,98923.59
2022-09-26T07:57:36.381Z,98914.63
2022-09-26T08:02:40.982Z,98904.75
2022-09-26T08:07:42.892Z,98897.06
2022-09-26T08:12:44.751Z,98891.28
2022-09-26T08:17:46.387Z,98887.69
2022-09-26T08:22:48.035Z,98883.63
2022-09-26T08:27:50.597Z,98884.16
2022-09-26T08:33:49.884Z,98875.84
2022-09-26T08:38:51.605Z,98872.66
2022-09-26T08:43:57.776Z,98860.72
2022-09-26T08:49:42.558Z,98857.69
2022-09-26T08:54:46.534Z,98855.31
2022-09-26T08:59:50.056Z,98847.56
2022-09-26T09:05:10.396Z,98841.44
2022-09-26T09:10:18.016Z,98839.00
2022-09-26T09:15:58.093Z,98846.00
2022-09-26T09:21:02.632Z,98824.78
2022-09-26T09:31:46.060Z,98821.03
2022-09-26T09:36:55.518Z,98834.19
2022-09-26T09:42:03.767Z,98835.88
2022-09-26T09:47:14.820Z,98829.34
2022-09-26T09:52:39.230Z,98821.19
2022-09-26T09:58:15.368Z,98808.44
2022-09-26T10:03:37.890Z,98798.81
2022-09-26T10:08:41.896Z,98792.66
2022-09-26T10:13:45.349Z,98779.25
2022-09-26T10:19:04.301Z,98787.19
2022-09-26T10:24:22.269Z,98789.00
2022-09-26T10:29:35.242Z,98786.63
2022-09-26T10:34:39.975Z,98784.19
2022-09-26T10:40:01.296Z,98783.50
2022-09-26T10:45:16.167Z,98769.50
2022-09-26T10:51:14.717Z,98777.47
2022-09-26T10:56:11.665Z,98785.06
2022-09-26T11:01:26.702Z,98779.03
2022-09-26T11:06:33.418Z,98788.59
2022-09-26T11:11:40.584Z,98773.22
2022-09-26T11:16:55.852Z,98778.47
2022-09-26T11:22:37.795Z,98773.44
2022-09-26T11:27:46.149Z,98756.03
2022-09-26T11:32:56.640Z,98764.75
2022-09-26T11:38:14.459Z,98752.59
2022-09-26T11:43:53.377Z,98738.97
2022-09-26T11:49:02.285Z,98738.66
2022-09-26T11:54:06.822Z,98721.56
2022-09-26T11:59:17.388Z,98718.72
2022-09-26T12:04:37.794Z,98719.66
2022-09-26T12:10:00.412Z,98717.44
2022-09-26T12:15:20.513Z,98706.53
2022-09-26T12:20:28.020Z,98688.09
2022-09-26T12:25:56.184Z,98669.25
2022-09-26T12:31:19.712Z,98665.13
2022-09-26T12:36:48.843Z,98651.81
2022-09-26T12:42:03.640Z,98643.25
2022-09-26T12:47:21.425Z,98634.59
2022-09-26T12:52:41.705Z,98627.97
2022-09-26T12:58:14.681Z,98622.75
2022-09-26T13:03:35.781Z,98610.50
2022-09-26T13:08:44.602Z,98602.41
2022-09-26T13:14:13.394Z,98580.22
2022-09-26T13:19:36.027Z,98572.06
2022-09-26T13:25:11.617Z,98551.81
2022-09-26T13:30:19.061Z,98544.00
2022-09-26T13:35:24.911Z,98532.13
2022-09-26T13:40:57.490Z,98511.84
2022-09-26T13:46:16.960Z,98501.66
2022-09-26T13:51:49.406Z,98499.25
2022-09-26T13:56:51.534Z,98486.63
2022-09-26T14:02:16.330Z,98489.78
2022-09-26T14:07:38.022Z,98475.97
2022-09-26T14:13:06.771Z,98474.84
2022-09-26T14:19:00.210Z,98462.81
2022-09-26T14:24:37.263Z,98451.69
2022-09-26T14:29:39.179Z,98457.13
2022-09-26T14:34:57.241Z,98449.81
2022-09-26T14:40:11.228Z,98435.91
2022-09-26T14:45:33.522Z,98435.53
2022-09-26T14:50:47.855Z,98426.09
2022-09-26T14:55:59.278Z,98415.28
2022-09-26T15:01:11.603Z,98407.56
2022-09-26T15:06:13.973Z,98414.50
2022-09-26T15:11:30.335Z,98397.91
2022-09-26T15:16:53.491Z,98400.41
2022-09-26T15:22:02.865Z,98393.41
2022-09-26T15:27:28.185Z,98387.38
2022-09-26T15:32:33.649Z,98386.00
2022-09-26T15:37:36.568Z,98375.16
2022-09-26T15:42:57.644Z,98368.25
2022-09-26T15:48:05.522Z,98369.72
2022-09-26T15:53:13.036Z,98369.81
2022-09-26T15:58:26.804Z,98369.47
2022-09-26T16:04:10.285Z,98368.44
2022-09-26T16:09:12.685Z,98366.25
2022-09-26T16:14:29.178Z,98367.03
2022-09-26T16:19:48.440Z,98372.50
2022-09-26T16:24:51.446Z,98371.03
2022-09-26T16:30:00.056Z,98362.47
2022-09-26T16:59:51.685Z,98315.13
2022-09-26T17:22:55.419Z,98299.56
2022-09-26T18:29:40.272Z,98217.19
2022-09-26T18:34:44.578Z,98213.06
2022-09-26T18:40:04.109Z,98205.19
2022-09-26T18:51:50.890Z,98189.34
2022-09-26T18:57:21.897Z,98184.25
2022-09-26T19:09:01.760Z,98176.66
2022-09-26T19:27:33.315Z,98153.41
2022-09-26T19:45:03.926Z,98144.03
2022-09-26T19:56:06.863Z,98122.13
2022-09-26T20:08:01.399Z,98111.50
2022-09-26T20:13:16.062Z,98104.75
2022-09-26T20:18:32.899Z,98097.72
2022-09-26T20:23:57.425Z,98086.13
2022-09-26T20:29:16.377Z,98065.06
2022-09-26T20:34:45.677Z,98075.97
2022-09-26T20:40:13.747Z,98059.88
2022-09-26T20:45:31.434Z,98050.09
2022-09-26T20:51:01.551Z,98048.06
2022-09-26T20:56:46.205Z,98041.72
2022-09-26T21:02:32.786Z,98031.78
2022-09-26T21:07:42.252Z,98028.06
2022-09-26T21:12:52.424Z,98022.97
2022-09-26T21:18:23.239Z,98015.03
2022-09-26T21:23:25.131Z,98007.53
2022-09-26T21:28:28.602Z,98011.47
2022-09-26T21:33:30.631Z,98005.88
2022-09-26T21:38:32.407Z,98005.41
2022-09-26T21:43:38.696Z,97996.88
2022-09-26T21:48:40.357Z,97995.59
2022-09-26T21:54:00.449Z,97983.47
2022-09-26T21:59:04.113Z,97982.44
2022-09-26T22:04:06.070Z,97977.50
2022-09-26T22:09:08.794Z,97970.34
2022-09-26T22:14:10.562Z,97968.91
2022-09-26T22:19:12.250Z,97964.56
2022-09-26T22:24:13.940Z,97967.19
2022-09-26T22:29:15.699Z,97944.16
2022-09-26T22:34:17.430Z,97939.75
2022-09-26T22:39:19.074Z,97937.84
2022-09-26T22:44:20.761Z,97942.81
2022-09-26T22:49:23.070Z,97943.06
2022-09-26T22:54:24.736Z,97945.25
2022-09-26T22:59:26.429Z,97935.78
2022-09-26T23:04:46.952Z,97928.47
2022-09-26T23:09:48.743Z,97932.75
2022-09-26T23:14:50.381Z,97933.28
2022-09-26T23:19:52.405Z,97928.94
2022-09-26T23:24:54.111Z,97925.22
2022-09-26T23:29:55.820Z,97932.94
2022-09-26T23:34:57.459Z,97921.81
2022-09-26T23:39:59.099Z,97922.66
2022-09-26T23:45:00.727Z,97918.81
2022-09-26T23:50:02.409Z,97919.59
2022-09-26T23:55:04.551Z,97907.94
